首页
METAR-TAF:

METAR-TAF

机场 :

Marshall County Airport

Lacon, 伊利诺伊州, 美国

纬度: 41-01-09N, 经度: 089-23-11W, 海拔: 173米

当前天气观测

该预报发布于18分钟前的18:55 UTC
风速17节,风向,有时为25节阵风
温度 12°C
湿度 76%
气压 1014 hPa
能見度: 16.1公里
阴天层高于3900英尺

METAR: KC75 211855Z AUTO 09017G25KT 10SM OVC039 12/08 A2995 RMK AO2 T01180082

时间: 14:13 (19:13 UTC)


TAF: 丢失

超过4000个机场的气象观测和天气预报(METAR&TAF报告)。

可查询的气象台以黄色和红色小点在地图上表示。

将鼠标移到小点上方,可查看气象台名称。

然后点击查看天气观测和预报。

如需切换地图:点击带黑十字的绿色按钮放大地图;点击带横线的绿色按钮缩小地图;或者点击绿色箭头查看邻近地区的地图。


METAR-TAF: